Sangster International Airport
MKJS : now visible

Airfield :











YOU CAN JOIN US ON...

 
LOGIN :

Register | Disclaimer

   EN    FR    IT 

 









Legend :    VFR   Marginal VFR   IFR   Intensive IFR   Very Intensive IFR
Visi :
Ceiling :
>= 8 km
>= 3000ft
5 to 8 km
1000 to 3000 ft
1500m to 5 km
500 to 1000 ft
800 to 1500m
200 to 500 ft
< 800m
< 200 ft
Symbols :   Thunderstorms  Fog  Heavy snow  Heavy precipitations  Wind > 20 kt






- Airport Elevation : 4 ft
- IATA code : MBJ


MKJS - Sangster International

CURRENT METAR :
  • 221300Z 01015KT 9999 BKN020 OVC032 24/20 Q1014

EXPIRED METARs :
  • 221200Z 01018KT 9999 BKN020 SCT036 24/21 Q1013
  • 221100Z 01021KT 9999 -RA SCT018 BKN036 24/21 Q1012 RERA

TAF TAF MKJS
Valid from the 22 at 12:00 until the 23 at 12:00 UTC


221115Z 2212/2312 05020KT 5000 SHRA BKN016 BKN034
BECMG 2217/2219 BKN020 SCT036
BECMG 2302/2304 16010KT



MET'MAP, your aeronautical weather chart ! - Copyright ORBIFLY December 2007 - Disclaimer

ORBIFLY MET'MAP TEAM :

Programming & Development : Alexandra Zaïnal
Concept & original design : Baudouin d'Aumeries
Assistance for programming : Marc-Olivier Méhu
Technical & hardware support : Manuel Goepfert

Contact : metmap@orbifly.com




SOURCES & CREDITS :

   NOAA       Earth
Advisory